Terminal Aerodrome Forecast
Issued by NWS Wilmington, OH

Current Version | Previous Version | Graphics & Text | Print | Product List | Glossary On
Versions: 1 2 3 4 5 6 7 8 9 10 11 12 13 14 15 16 17 18 19 20 21 22
000
FTUS41 KILN 101400 AAA
TAFCVG
TAF AMD
KCVG 101455Z 1015/1118 36008KT P6SM SCT060
     FM110000 04003KT P6SM SCT060
     FM111200 07004KT P6SM SCT060 SCT250=

USA.gov is the U.S. government's official web portal to all federal, state and local government web resources and services.